sensor_id;sensor_type;location;lat;lon;timestamp;pressure;altitude;pressure_sealevel;temperature;humidity
58769;BME280;44536;47.474;19.056;2022-08-19T00:02:38;99893.59;;;25.55;50.16
58769;BME280;44536;47.474;19.056;2022-08-19T00:05:51;99902.81;;;25.54;50.23
58769;BME280;44536;47.474;19.056;2022-08-19T00:08:53;99904.19;;;25.45;50.45
58769;BME280;44536;47.474;19.056;2022-08-19T00:11:57;99908.84;;;25.38;50.69
58769;BME280;44536;47.474;19.056;2022-08-19T00:14:59;99905.75;;;25.34;50.46
58769;BME280;44536;47.474;19.056;2022-08-19T00:18:01;99896.72;;;25.40;50.50
58769;BME280;44536;47.474;19.056;2022-08-19T00:21:04;99902.13;;;25.40;50.44
58769;BME280;44536;47.474;19.056;2022-08-19T00:24:13;99908.63;;;25.39;50.81
58769;BME280;44536;47.474;19.056;2022-08-19T00:27:15;99907.84;;;25.32;50.83
58769;BME280;44536;47.474;19.056;2022-08-19T00:30:28;99902.87;;;25.48;50.40
58769;BME280;44536;47.474;19.056;2022-08-19T00:33:31;99910.22;;;25.47;50.41
58769;BME280;44536;47.474;19.056;2022-08-19T00:36:36;99916.38;;;25.36;51.20
58769;BME280;44536;47.474;19.056;2022-08-19T00:39:39;99912.06;;;25.28;51.08
58769;BME280;44536;47.474;19.056;2022-08-19T00:42:42;99913.44;;;25.37;50.75
58769;BME280;44536;47.474;19.056;2022-08-19T00:45:44;99922.31;;;25.26;51.17
58769;BME280;44536;47.474;19.056;2022-08-19T00:48:47;99913.59;;;25.61;50.23
58769;BME280;44536;47.474;19.056;2022-08-19T00:51:52;99900.47;;;25.58;50.67
58769;BME280;44536;47.474;19.056;2022-08-19T00:54:57;99892.28;;;25.46;51.02
58769;BME280;44536;47.474;19.056;2022-08-19T00:58:06;99900.63;;;25.63;50.70
58769;BME280;44536;47.474;19.056;2022-08-19T01:01:10;99902.31;;;25.64;50.39
58769;BME280;44536;47.474;19.056;2022-08-19T01:04:13;99891.78;;;25.74;50.29
58769;BME280;44536;47.474;19.056;2022-08-19T01:07:15;99900.31;;;25.53;51.27
58769;BME280;44536;47.474;19.056;2022-08-19T01:10:24;99896.34;;;25.37;51.38
58769;BME280;44536;47.474;19.056;2022-08-19T01:13:30;99887.13;;;25.38;51.47
58769;BME280;44536;47.474;19.056;2022-08-19T01:16:51;99896.34;;;25.37;51.30
58769;BME280;44536;47.474;19.056;2022-08-19T01:19:56;99891.72;;;25.37;51.67
58769;BME280;44536;47.474;19.056;2022-08-19T01:22:58;99897.34;;;25.18;52.15
58769;BME280;44536;47.474;19.056;2022-08-19T01:26:01;99882.38;;;25.33;51.99
58769;BME280;44536;47.474;19.056;2022-08-19T01:29:03;99878.16;;;25.37;51.54
58769;BME280;44536;47.474;19.056;2022-08-19T01:32:09;99888.50;;;25.47;51.66
58769;BME280;44536;47.474;19.056;2022-08-19T01:35:35;99892.91;;;25.23;52.12
58769;BME280;44536;47.474;19.056;2022-08-19T01:38:40;99881.94;;;25.12;52.70
58769;BME280;44536;47.474;19.056;2022-08-19T01:41:46;99871.75;;;25.32;51.57
58769;BME280;44536;47.474;19.056;2022-08-19T01:44:49;99874.56;;;25.44;51.35
58769;BME280;44536;47.474;19.056;2022-08-19T01:47:52;99871.59;;;25.27;51.69
58769;BME280;44536;47.474;19.056;2022-08-19T01:51:04;99879.91;;;25.07;52.57
58769;BME280;44536;47.474;19.056;2022-08-19T01:54:08;99874.75;;;24.99;52.62
58769;BME280;44536;47.474;19.056;2022-08-19T01:57:12;99853.47;;;25.21;51.85
58769;BME280;44536;47.474;19.056;2022-08-19T02:00:18;99859.81;;;25.51;51.46
58769;BME280;44536;47.474;19.056;2022-08-19T02:03:21;99851.00;;;25.56;51.84
58769;BME280;44536;47.474;19.056;2022-08-19T02:06:24;99849.06;;;25.45;52.56
58769;BME280;44536;47.474;19.056;2022-08-19T02:09:28;99846.81;;;25.42;52.20
58769;BME280;44536;47.474;19.056;2022-08-19T02:12:30;99853.09;;;25.17;52.63
58769;BME280;44536;47.474;19.056;2022-08-19T02:15:32;99845.06;;;25.47;51.86
58769;BME280;44536;47.474;19.056;2022-08-19T02:18:35;99830.41;;;25.48;51.89
58769;BME280;44536;47.474;19.056;2022-08-19T02:21:37;99839.72;;;25.40;52.38
58769;BME280;44536;47.474;19.056;2022-08-19T02:24:40;99838.94;;;25.15;53.16
58769;BME280;44536;47.474;19.056;2022-08-19T02:27:43;99845.62;;;25.13;53.46
58769;BME280;44536;47.474;19.056;2022-08-19T02:30:46;99839.91;;;25.21;52.92
58769;BME280;44536;47.474;19.056;2022-08-19T02:33:49;99826.37;;;24.96;53.96
58769;BME280;44536;47.474;19.056;2022-08-19T02:36:52;99830.63;;;24.85;54.11
58769;BME280;44536;47.474;19.056;2022-08-19T02:39:54;99840.78;;;24.96;53.84
58769;BME280;44536;47.474;19.056;2022-08-19T02:42:57;99857.38;;;24.82;54.32
58769;BME280;44536;47.474;19.056;2022-08-19T02:45:59;99844.09;;;24.73;54.67
58769;BME280;44536;47.474;19.056;2022-08-19T02:49:05;99859.81;;;24.90;54.04
58769;BME280;44536;47.474;19.056;2022-08-19T02:52:08;99851.91;;;24.88;54.38
58769;BME280;44536;47.474;19.056;2022-08-19T02:55:10;99850.22;;;24.87;54.56
58769;BME280;44536;47.474;19.056;2022-08-19T02:58:14;99861.41;;;24.72;54.95
58769;BME280;44536;47.474;19.056;2022-08-19T03:01:41;99871.06;;;24.62;55.19
58769;BME280;44536;47.474;19.056;2022-08-19T03:04:44;99866.31;;;24.57;55.36
58769;BME280;44536;47.474;19.056;2022-08-19T03:07:46;99874.62;;;24.62;54.97
58769;BME280;44536;47.474;19.056;2022-08-19T03:10:49;99872.50;;;24.39;55.57
58769;BME280;44536;47.474;19.056;2022-08-19T03:13:51;99875.81;;;24.41;55.61
58769;BME280;44536;47.474;19.056;2022-08-19T03:16:55;99881.09;;;24.30;55.92
58769;BME280;44536;47.474;19.056;2022-08-19T03:19:57;99876.94;;;24.21;56.44
58769;BME280;44536;47.474;19.056;2022-08-19T03:23:00;99881.94;;;24.30;56.14
58769;BME280;44536;47.474;19.056;2022-08-19T03:26:05;99895.72;;;24.16;56.72
58769;BME280;44536;47.474;19.056;2022-08-19T03:29:19;99901.34;;;24.21;56.60
58769;BME280;44536;47.474;19.056;2022-08-19T03:32:32;99892.16;;;24.28;56.08
58769;BME280;44536;47.474;19.056;2022-08-19T03:35:36;99888.81;;;24.20;56.45
58769;BME280;44536;47.474;19.056;2022-08-19T03:38:52;99891.50;;;24.33;56.21
58769;BME280;44536;47.474;19.056;2022-08-19T03:42:01;99892.16;;;24.28;56.18
58769;BME280;44536;47.474;19.056;2022-08-19T03:45:24;99893.63;;;24.18;56.42
58769;BME280;44536;47.474;19.056;2022-08-19T03:48:26;99900.47;;;24.33;56.52
58769;BME280;44536;47.474;19.056;2022-08-19T03:51:31;99894.25;;;24.26;56.52
58769;BME280;44536;47.474;19.056;2022-08-19T03:54:34;99898.19;;;24.24;56.27
58769;BME280;44536;47.474;19.056;2022-08-19T03:57:37;99904.22;;;24.32;56.00
58769;BME280;44536;47.474;19.056;2022-08-19T04:00:42;99917.81;;;24.13;56.58
58769;BME280;44536;47.474;19.056;2022-08-19T04:03:45;99915.69;;;24.34;56.10
58769;BME280;44536;47.474;19.056;2022-08-19T04:06:48;99906.41;;;24.49;55.77
58769;BME280;44536;47.474;19.056;2022-08-19T04:09:51;99908.41;;;24.60;56.52
58769;BME280;44536;47.474;19.056;2022-08-19T04:12:53;99917.41;;;24.54;57.58
58769;BME280;44536;47.474;19.056;2022-08-19T04:15:56;99933.91;;;24.52;58.51
58769;BME280;44536;47.474;19.056;2022-08-19T04:19:00;99929.12;;;24.48;60.36
58769;BME280;44536;47.474;19.056;2022-08-19T04:22:03;99937.31;;;24.41;56.73
58769;BME280;44536;47.474;19.056;2022-08-19T04:25:06;99948.31;;;24.46;57.42
58769;BME280;44536;47.474;19.056;2022-08-19T04:28:10;99931.72;;;24.67;56.78
58769;BME280;44536;47.474;19.056;2022-08-19T04:31:19;99928.84;;;24.94;55.81
58769;BME280;44536;47.474;19.056;2022-08-19T04:34:26;99929.50;;;25.14;54.00
58769;BME280;44536;47.474;19.056;2022-08-19T04:37:28;99929.56;;;25.07;54.35
58769;BME280;44536;47.474;19.056;2022-08-19T04:40:41;99942.84;;;25.40;53.87
58769;BME280;44536;47.474;19.056;2022-08-19T04:44:02;99941.88;;;25.53;52.86
58769;BME280;44536;47.474;19.056;2022-08-19T04:47:05;99945.63;;;25.52;53.71
58769;BME280;44536;47.474;19.056;2022-08-19T04:50:12;99962.25;;;25.44;54.35
58769;BME280;44536;47.474;19.056;2022-08-19T04:53:14;99941.19;;;25.58;53.52
58769;BME280;44536;47.474;19.056;2022-08-19T04:56:18;99940.50;;;25.87;52.29
58769;BME280;44536;47.474;19.056;2022-08-19T04:59:23;99936.28;;;25.73;51.43
58769;BME280;44536;47.474;19.056;2022-08-19T05:02:25;99928.41;;;26.01;51.05
58769;BME280;44536;47.474;19.056;2022-08-19T05:05:28;99942.94;;;25.95;50.88
58769;BME280;44536;47.474;19.056;2022-08-19T05:08:46;99938.59;;;26.06;50.93
58769;BME280;44536;47.474;19.056;2022-08-19T05:11:49;99947.41;;;26.20;51.07
58769;BME280;44536;47.474;19.056;2022-08-19T05:14:55;99939.09;;;26.51;52.07
58769;BME280;44536;47.474;19.056;2022-08-19T05:17:59;99941.75;;;26.69;49.56
58769;BME280;44536;47.474;19.056;2022-08-19T05:21:22;99945.34;;;26.93;49.32
58769;BME280;44536;47.474;19.056;2022-08-19T05:24:44;99947.06;;;27.18;47.75
58769;BME280;44536;47.474;19.056;2022-08-19T05:28:06;99946.50;;;27.39;46.92
58769;BME280;44536;47.474;19.056;2022-08-19T05:31:08;99948.16;;;27.63;47.17
58769;BME280;44536;47.474;19.056;2022-08-19T05:34:11;99945.19;;;27.88;46.32
58769;BME280;44536;47.474;19.056;2022-08-19T05:37:21;99944.34;;;27.99;46.31
58769;BME280;44536;47.474;19.056;2022-08-19T05:40:24;99953.59;;;27.98;45.63
58769;BME280;44536;47.474;19.056;2022-08-19T05:43:28;99951.28;;;28.76;43.92
58769;BME280;44536;47.474;19.056;2022-08-19T05:46:30;99951.94;;;29.83;41.06
58769;BME280;44536;47.474;19.056;2022-08-19T05:49:34;99948.34;;;30.43;39.79
58769;BME280;44536;47.474;19.056;2022-08-19T05:52:38;99944.97;;;31.54;37.38
58769;BME280;44536;47.474;19.056;2022-08-19T05:55:55;99953.63;;;32.35;35.81
58769;BME280;44536;47.474;19.056;2022-08-19T05:58:59;99947.50;;;34.21;32.66
58769;BME280;44536;47.474;19.056;2022-08-19T06:02:05;99945.09;;;35.90;29.74
58769;BME280;44536;47.474;19.056;2022-08-19T06:05:09;99948.66;;;35.90;29.75
58769;BME280;44536;47.474;19.056;2022-08-19T06:08:11;99960.47;;;36.81;28.50
58769;BME280;44536;47.474;19.056;2022-08-19T06:11:31;99954.78;;;36.35;29.52
58769;BME280;44536;47.474;19.056;2022-08-19T06:14:37;99953.03;;;37.60;26.83
58769;BME280;44536;47.474;19.056;2022-08-19T06:17:43;99954.56;;;37.66;27.17
58769;BME280;44536;47.474;19.056;2022-08-19T06:20:49;99949.19;;;38.16;26.15
58769;BME280;44536;47.474;19.056;2022-08-19T06:24:00;99949.59;;;37.22;27.08
58769;BME280;44536;47.474;19.056;2022-08-19T06:27:03;99951.84;;;37.01;27.40
58769;BME280;44536;47.474;19.056;2022-08-19T06:30:08;99946.59;;;37.65;26.59
58769;BME280;44536;47.474;19.056;2022-08-19T06:33:10;99950.78;;;36.22;28.33
58769;BME280;44536;47.474;19.056;2022-08-19T06:36:27;99925.84;;;34.98;30.12
58769;BME280;44536;47.474;19.056;2022-08-19T06:39:36;99925.53;;;35.62;29.54
58769;BME280;44536;47.474;19.056;2022-08-19T06:42:39;99928.69;;;37.76;26.53
58769;BME280;44536;47.474;19.056;2022-08-19T06:45:51;99941.31;;;39.80;24.08
58769;BME280;44536;47.474;19.056;2022-08-19T06:48:55;99941.16;;;38.42;25.26
58769;BME280;44536;47.474;19.056;2022-08-19T06:51:58;99929.16;;;39.36;24.65
58769;BME280;44536;47.474;19.056;2022-08-19T06:55:04;99932.63;;;40.29;23.03
58769;BME280;44536;47.474;19.056;2022-08-19T06:58:07;99927.91;;;39.82;23.02
58769;BME280;44536;47.474;19.056;2022-08-19T07:01:11;99929.22;;;39.76;23.02
58769;BME280;44536;47.474;19.056;2022-08-19T07:04:17;99937.75;;;39.26;23.62
58769;BME280;44536;47.474;19.056;2022-08-19T07:07:21;99937.81;;;39.65;23.74
58769;BME280;44536;47.474;19.056;2022-08-19T07:10:24;99954.41;;;39.88;23.08
58769;BME280;44536;47.474;19.056;2022-08-19T07:13:27;99953.28;;;39.04;23.87
58769;BME280;44536;47.474;19.056;2022-08-19T07:16:29;99969.47;;;38.39;25.01
58769;BME280;44536;47.474;19.056;2022-08-19T07:19:33;99963.13;;;38.74;23.90
58769;BME280;44536;47.474;19.056;2022-08-19T07:22:39;99961.66;;;39.35;24.05
58769;BME280;44536;47.474;19.056;2022-08-19T07:25:42;99957.53;;;40.43;22.94
58769;BME280;44536;47.474;19.056;2022-08-19T07:28:47;99961.94;;;38.67;24.82
58769;BME280;44536;47.474;19.056;2022-08-19T07:31:55;99965.94;;;37.51;26.57
58769;BME280;44536;47.474;19.056;2022-08-19T07:35:14;99960.12;;;37.01;27.40
58769;BME280;44536;47.474;19.056;2022-08-19T07:38:26;99959.03;;;36.27;28.54
58769;BME280;44536;47.474;19.056;2022-08-19T07:41:29;99950.78;;;35.74;28.73
58769;BME280;44536;47.474;19.056;2022-08-19T07:44:33;99949.88;;;35.26;29.71
58769;BME280;44536;47.474;19.056;2022-08-19T07:47:36;99947.34;;;34.96;29.45
58769;BME280;44536;47.474;19.056;2022-08-19T07:50:57;99946.38;;;34.76;29.67
58769;BME280;44536;47.474;19.056;2022-08-19T07:54:00;99945.56;;;34.27;31.54
58769;BME280;44536;47.474;19.056;2022-08-19T07:57:03;99944.34;;;33.78;31.73
58769;BME280;44536;47.474;19.056;2022-08-19T08:00:06;99949.63;;;33.49;31.87
58769;BME280;44536;47.474;19.056;2022-08-19T08:03:15;99955.97;;;33.19;32.20
58769;BME280;44536;47.474;19.056;2022-08-19T08:06:17;99949.94;;;33.28;32.51
58769;BME280;44536;47.474;19.056;2022-08-19T08:09:41;99946.59;;;33.56;32.15
58769;BME280;44536;47.474;19.056;2022-08-19T08:12:51;99952.66;;;33.38;32.86
58769;BME280;44536;47.474;19.056;2022-08-19T08:16:12;99951.28;;;33.00;32.88
58769;BME280;44536;47.474;19.056;2022-08-19T08:19:19;99950.47;;;33.09;32.23
58769;BME280;44536;47.474;19.056;2022-08-19T08:22:26;99952.91;;;32.80;32.75
58769;BME280;44536;47.474;19.056;2022-08-19T08:25:48;99958.31;;;32.40;34.09
58769;BME280;44536;47.474;19.056;2022-08-19T08:28:52;99952.53;;;32.36;32.53
58769;BME280;44536;47.474;19.056;2022-08-19T08:31:55;99952.38;;;32.78;31.73
58769;BME280;44536;47.474;19.056;2022-08-19T08:35:01;99942.50;;;33.13;31.73
58769;BME280;44536;47.474;19.056;2022-08-19T08:38:03;99946.34;;;33.52;31.48
58769;BME280;44536;47.474;19.056;2022-08-19T08:41:14;99942.78;;;33.16;29.80
58769;BME280;44536;47.474;19.056;2022-08-19T08:47:40;99943.31;;;32.93;30.78
58769;BME280;44536;47.474;19.056;2022-08-19T08:50:45;99932.87;;;32.95;30.27
58769;BME280;44536;47.474;19.056;2022-08-19T08:53:51;99928.50;;;32.89;29.90
58769;BME280;44536;47.474;19.056;2022-08-19T08:56:58;99920.75;;;32.55;30.77
58769;BME280;44536;47.474;19.056;2022-08-19T09:00:03;99915.00;;;32.72;31.40
58769;BME280;44536;47.474;19.056;2022-08-19T09:03:25;99923.28;;;32.93;31.58
58769;BME280;44536;47.474;19.056;2022-08-19T09:09:46;99930.91;;;32.60;31.67
58769;BME280;44536;47.474;19.056;2022-08-19T09:13:05;99925.47;;;32.80;31.63
58769;BME280;44536;47.474;19.056;2022-08-19T09:16:17;99915.88;;;32.98;31.63
58769;BME280;44536;47.474;19.056;2022-08-19T09:19:30;99926.84;;;33.29;30.99
58769;BME280;44536;47.474;19.056;2022-08-19T09:22:35;99916.91;;;33.58;30.73
58769;BME280;44536;47.474;19.056;2022-08-19T09:25:38;99912.81;;;34.25;30.11
58769;BME280;44536;47.474;19.056;2022-08-19T09:28:46;99907.44;;;34.00;30.11
58769;BME280;44536;47.474;19.056;2022-08-19T09:31:49;99905.84;;;34.43;30.21
58769;BME280;44536;47.474;19.056;2022-08-19T09:34:52;99899.69;;;34.12;30.35
58769;BME280;44536;47.474;19.056;2022-08-19T09:37:57;99898.16;;;33.75;29.86
58769;BME280;44536;47.474;19.056;2022-08-19T09:41:04;99901.78;;;33.55;29.92
58769;BME280;44536;47.474;19.056;2022-08-19T09:44:08;99891.31;;;33.68;30.28
58769;BME280;44536;47.474;19.056;2022-08-19T09:47:13;99883.09;;;34.27;29.55
58769;BME280;44536;47.474;19.056;2022-08-19T09:50:15;99871.31;;;34.61;28.95
58769;BME280;44536;47.474;19.056;2022-08-19T09:53:19;99874.56;;;35.02;28.35
58769;BME280;44536;47.474;19.056;2022-08-19T09:56:27;99872.63;;;36.03;26.65
58769;BME280;44536;47.474;19.056;2022-08-19T09:59:30;99879.13;;;36.68;25.57
58769;BME280;44536;47.474;19.056;2022-08-19T10:02:34;99860.75;;;37.70;24.31
58769;BME280;44536;47.474;19.056;2022-08-19T10:05:37;99857.03;;;37.61;24.39
58769;BME280;44536;47.474;19.056;2022-08-19T10:08:55;99861.22;;;36.09;25.50
58769;BME280;44536;47.474;19.056;2022-08-19T10:11:58;99862.69;;;35.83;26.08
58769;BME280;44536;47.474;19.056;2022-08-19T10:15:05;99870.25;;;35.72;26.03
58769;BME280;44536;47.474;19.056;2022-08-19T10:18:08;99860.22;;;35.58;26.43
58769;BME280;44536;47.474;19.056;2022-08-19T10:21:16;99852.78;;;36.01;25.75
58769;BME280;44536;47.474;19.056;2022-08-19T10:24:19;99849.66;;;36.07;26.80
58769;BME280;44536;47.474;19.056;2022-08-19T10:27:22;99850.41;;;36.51;25.94
58769;BME280;44536;47.474;19.056;2022-08-19T10:30:27;99851.47;;;36.17;25.48
58769;BME280;44536;47.474;19.056;2022-08-19T10:33:29;99844.38;;;36.48;25.66
58769;BME280;44536;47.474;19.056;2022-08-19T10:36:53;99850.63;;;37.19;24.83
58769;BME280;44536;47.474;19.056;2022-08-19T10:40:02;99848.41;;;37.62;25.68
58769;BME280;44536;47.474;19.056;2022-08-19T10:43:06;99847.91;;;38.37;23.43
58769;BME280;44536;47.474;19.056;2022-08-19T10:46:10;99851.22;;;38.62;23.05
58769;BME280;44536;47.474;19.056;2022-08-19T10:49:18;99844.66;;;39.82;22.00
58769;BME280;44536;47.474;19.056;2022-08-19T10:52:21;99851.16;;;38.76;22.67
58769;BME280;44536;47.474;19.056;2022-08-19T10:55:40;99853.56;;;39.22;22.38
58769;BME280;44536;47.474;19.056;2022-08-19T10:59:00;99841.87;;;38.80;22.44
58769;BME280;44536;47.474;19.056;2022-08-19T11:02:08;99846.06;;;39.62;21.59
58769;BME280;44536;47.474;19.056;2022-08-19T11:05:12;99842.94;;;40.38;20.87
58769;BME280;44536;47.474;19.056;2022-08-19T11:08:15;99842.25;;;40.92;20.93
58769;BME280;44536;47.474;19.056;2022-08-19T11:11:24;99843.72;;;40.12;20.18
58769;BME280;44536;47.474;19.056;2022-08-19T11:14:27;99842.25;;;40.06;20.39
58769;BME280;44536;47.474;19.056;2022-08-19T11:17:35;99840.91;;;39.86;21.00
58769;BME280;44536;47.474;19.056;2022-08-19T11:20:38;99842.25;;;40.66;19.69
58769;BME280;44536;47.474;19.056;2022-08-19T11:23:40;99835.72;;;40.62;20.20
58769;BME280;44536;47.474;19.056;2022-08-19T11:26:43;99834.50;;;41.53;19.06
58769;BME280;44536;47.474;19.056;2022-08-19T11:29:45;99835.81;;;42.27;17.92
58769;BME280;44536;47.474;19.056;2022-08-19T11:32:47;99839.47;;;41.39;18.78
58769;BME280;44536;47.474;19.056;2022-08-19T11:35:50;99833.50;;;41.11;18.92
58769;BME280;44536;47.474;19.056;2022-08-19T11:38:53;99839.34;;;41.27;19.24
58769;BME280;44536;47.474;19.056;2022-08-19T11:41:57;99832.13;;;40.27;20.02
58769;BME280;44536;47.474;19.056;2022-08-19T11:45:00;99835.19;;;40.95;19.38
58769;BME280;44536;47.474;19.056;2022-08-19T11:48:02;99828.34;;;41.69;18.68
58769;BME280;44536;47.474;19.056;2022-08-19T11:51:08;99827.81;;;42.46;19.14
58769;BME280;44536;47.474;19.056;2022-08-19T11:54:13;99823.53;;;42.49;17.91
58769;BME280;44536;47.474;19.056;2022-08-19T11:57:16;99828.69;;;42.17;17.63
58769;BME280;44536;47.474;19.056;2022-08-19T12:00:19;99812.34;;;41.27;19.16
58769;BME280;44536;47.474;19.056;2022-08-19T12:03:21;99808.13;;;42.63;18.43
58769;BME280;44536;47.474;19.056;2022-08-19T12:06:27;99798.22;;;42.33;19.11
58769;BME280;44536;47.474;19.056;2022-08-19T12:09:31;99797.00;;;43.33;17.04
58769;BME280;44536;47.474;19.056;2022-08-19T12:12:34;99799.66;;;41.97;18.13
58769;BME280;44536;47.474;19.056;2022-08-19T12:15:37;99804.22;;;40.50;19.52
58769;BME280;44536;47.474;19.056;2022-08-19T12:18:40;99808.75;;;40.20;20.09
58769;BME280;44536;47.474;19.056;2022-08-19T12:21:48;99803.37;;;39.97;20.31
58769;BME280;44536;47.474;19.056;2022-08-19T12:24:51;99800.50;;;39.63;20.95
58769;BME280;44536;47.474;19.056;2022-08-19T12:27:55;99808.25;;;39.35;20.91
58769;BME280;44536;47.474;19.056;2022-08-19T12:30:58;99811.81;;;38.96;21.26
58769;BME280;44536;47.474;19.056;2022-08-19T12:34:02;99811.78;;;39.18;21.24
58769;BME280;44536;47.474;19.056;2022-08-19T12:37:06;99809.31;;;39.56;20.93
58769;BME280;44536;47.474;19.056;2022-08-19T12:40:09;99811.09;;;38.82;22.12
58769;BME280;44536;47.474;19.056;2022-08-19T12:43:14;99804.09;;;38.39;23.11
58769;BME280;44536;47.474;19.056;2022-08-19T12:46:18;99789.81;;;38.99;21.56
58769;BME280;44536;47.474;19.056;2022-08-19T12:49:23;99782.66;;;39.38;20.73
58769;BME280;44536;47.474;19.056;2022-08-19T12:52:47;99780.16;;;40.11;20.06
58769;BME280;44536;47.474;19.056;2022-08-19T12:55:57;99776.19;;;40.63;19.63
58769;BME280;44536;47.474;19.056;2022-08-19T12:59:03;99770.91;;;40.96;20.74
58769;BME280;44536;47.474;19.056;2022-08-19T13:02:07;99772.97;;;41.08;18.74
58769;BME280;44536;47.474;19.056;2022-08-19T13:05:12;99769.09;;;41.00;19.78
58769;BME280;44536;47.474;19.056;2022-08-19T13:08:15;99774.78;;;40.49;19.92
58769;BME280;44536;47.474;19.056;2022-08-19T13:11:19;99781.81;;;41.48;20.54
58769;BME280;44536;47.474;19.056;2022-08-19T13:14:22;99782.81;;;41.94;17.92
58769;BME280;44536;47.474;19.056;2022-08-19T13:17:25;99780.31;;;41.51;18.55
58769;BME280;44536;47.474;19.056;2022-08-19T13:20:27;99763.09;;;42.08;18.73
58769;BME280;44536;47.474;19.056;2022-08-19T13:23:30;99766.53;;;41.54;19.06
58769;BME280;44536;47.474;19.056;2022-08-19T13:26:32;99762.47;;;41.22;18.85
58769;BME280;44536;47.474;19.056;2022-08-19T13:29:35;99755.91;;;40.89;19.83
58769;BME280;44536;47.474;19.056;2022-08-19T13:32:55;99755.84;;;39.99;19.78
58769;BME280;44536;47.474;19.056;2022-08-19T13:36:13;99760.09;;;40.48;20.67
58769;BME280;44536;47.474;19.056;2022-08-19T13:39:16;99762.22;;;39.99;20.36
58769;BME280;44536;47.474;19.056;2022-08-19T13:42:18;99752.94;;;38.90;20.66
58769;BME280;44536;47.474;19.056;2022-08-19T13:45:23;99748.09;;;39.04;20.56
58769;BME280;44536;47.474;19.056;2022-08-19T13:48:26;99746.44;;;38.64;21.31
58769;BME280;44536;47.474;19.056;2022-08-19T13:51:29;99745.62;;;38.19;21.63
58769;BME280;44536;47.474;19.056;2022-08-19T13:54:31;99740.13;;;38.72;22.06
58769;BME280;44536;47.474;19.056;2022-08-19T13:57:34;99734.03;;;38.92;21.39
58769;BME280;44536;47.474;19.056;2022-08-19T14:00:43;99735.25;;;38.55;23.07
58769;BME280;44536;47.474;19.056;2022-08-19T14:03:47;99727.19;;;37.64;25.15
58769;BME280;44536;47.474;19.056;2022-08-19T14:06:49;99767.13;;;36.43;27.17
58769;BME280;44536;47.474;19.056;2022-08-19T14:09:51;99760.03;;;35.20;29.80
58769;BME280;44536;47.474;19.056;2022-08-19T14:12:55;99764.25;;;34.54;30.83
58769;BME280;44536;47.474;19.056;2022-08-19T14:15:58;99759.09;;;34.08;31.69
58769;BME280;44536;47.474;19.056;2022-08-19T14:19:00;99746.78;;;34.01;31.83
58769;BME280;44536;47.474;19.056;2022-08-19T14:22:03;99755.97;;;33.81;32.06
58769;BME280;44536;47.474;19.056;2022-08-19T14:25:09;99755.63;;;33.93;31.99
58769;BME280;44536;47.474;19.056;2022-08-19T14:28:12;99758.88;;;34.00;31.96
58769;BME280;44536;47.474;19.056;2022-08-19T14:31:16;99750.91;;;33.98;32.41
58769;BME280;44536;47.474;19.056;2022-08-19T14:34:20;99754.06;;;33.76;32.42
58769;BME280;44536;47.474;19.056;2022-08-19T14:37:24;99760.22;;;33.53;32.47
58769;BME280;44536;47.474;19.056;2022-08-19T14:40:28;99740.00;;;33.29;32.95
58769;BME280;44536;47.474;19.056;2022-08-19T14:43:31;99751.22;;;33.37;32.71
58769;BME280;44536;47.474;19.056;2022-08-19T14:46:33;99747.31;;;33.48;32.77
58769;BME280;44536;47.474;19.056;2022-08-19T14:49:36;99754.31;;;33.20;32.29
58769;BME280;44536;47.474;19.056;2022-08-19T14:52:45;99772.53;;;32.71;32.59
58769;BME280;44536;47.474;19.056;2022-08-19T14:55:48;99770.31;;;32.32;32.88
58769;BME280;44536;47.474;19.056;2022-08-19T14:58:51;99793.88;;;32.13;32.12
58769;BME280;44536;47.474;19.056;2022-08-19T15:01:53;99792.78;;;32.09;31.62
58769;BME280;44536;47.474;19.056;2022-08-19T15:04:56;99797.66;;;31.86;31.03
58769;BME280;44536;47.474;19.056;2022-08-19T15:08:03;99797.63;;;31.71;30.84
58769;BME280;44536;47.474;19.056;2022-08-19T15:11:13;99820.81;;;31.48;30.21
58769;BME280;44536;47.474;19.056;2022-08-19T15:14:16;99812.91;;;31.57;30.16
58769;BME280;44536;47.474;19.056;2022-08-19T15:17:19;99818.97;;;31.64;29.28
58769;BME280;44536;47.474;19.056;2022-08-19T15:20:21;99822.31;;;31.71;29.33
58769;BME280;44536;47.474;19.056;2022-08-19T15:23:25;99820.66;;;31.80;29.08
58769;BME280;44536;47.474;19.056;2022-08-19T15:26:27;99833.56;;;31.85;29.06
58769;BME280;44536;47.474;19.056;2022-08-19T15:29:30;99834.63;;;31.74;29.15
58769;BME280;44536;47.474;19.056;2022-08-19T15:32:32;99851.25;;;31.57;29.46
58769;BME280;44536;47.474;19.056;2022-08-19T15:35:34;99870.03;;;31.33;30.34
58769;BME280;44536;47.474;19.056;2022-08-19T15:38:37;99863.09;;;31.20;29.95
58769;BME280;44536;47.474;19.056;2022-08-19T15:41:45;99862.75;;;31.12;30.28
58769;BME280;44536;47.474;19.056;2022-08-19T15:44:47;99864.59;;;31.01;30.31
58769;BME280;44536;47.474;19.056;2022-08-19T15:47:51;99837.75;;;30.98;30.61
58769;BME280;44536;47.474;19.056;2022-08-19T15:50:53;99796.09;;;30.96;30.31
58769;BME280;44536;47.474;19.056;2022-08-19T15:53:57;99799.38;;;30.93;30.59
58769;BME280;44536;47.474;19.056;2022-08-19T15:57:00;99804.63;;;31.00;30.84
58769;BME280;44536;47.474;19.056;2022-08-19T16:00:21;99798.84;;;30.96;30.62
58769;BME280;44536;47.474;19.056;2022-08-19T16:03:42;99807.34;;;31.00;31.07
58769;BME280;44536;47.474;19.056;2022-08-19T16:07:03;99805.28;;;30.80;30.94
58769;BME280;44536;47.474;19.056;2022-08-19T16:10:06;99802.78;;;30.73;32.22
58769;BME280;44536;47.474;19.056;2022-08-19T16:13:28;99794.09;;;30.81;31.84
58769;BME280;44536;47.474;19.056;2022-08-19T16:16:32;99778.84;;;30.95;30.67
58769;BME280;44536;47.474;19.056;2022-08-19T16:19:35;99780.47;;;30.91;31.12